createdAt,value
2018-09-04T00:00:47.839Z,4.33
2018-09-04T00:03:17.270Z,4.77
2018-09-04T00:05:46.937Z,4.50
2018-09-04T00:08:16.719Z,4.40
2018-09-04T00:10:46.470Z,4.80
2018-09-04T00:13:16.000Z,4.50
2018-09-04T00:15:45.660Z,4.33
2018-09-04T00:18:15.261Z,4.27
2018-09-04T00:20:44.658Z,4.93
2018-09-04T00:23:15.277Z,4.50
2018-09-04T00:25:44.792Z,4.23
2018-09-04T00:28:14.130Z,4.43
2018-09-04T00:30:43.761Z,3.80
2018-09-04T00:33:13.168Z,3.37
2018-09-04T00:35:42.506Z,3.93
2018-09-04T00:38:12.254Z,3.67
2018-09-04T00:40:41.793Z,4.13
2018-09-04T00:43:11.117Z,4.37
2018-09-04T00:45:40.308Z,4.30
2018-09-04T00:48:10.278Z,4.20
2018-09-04T00:50:39.493Z,4.33
2018-09-04T00:53:09.172Z,4.37
2018-09-04T00:55:38.750Z,4.17
2018-09-04T00:58:08.010Z,3.93
2018-09-04T01:00:37.898Z,4.03
2018-09-04T01:03:07.425Z,4.60
2018-09-04T01:05:37.004Z,4.37
2018-09-04T01:08:06.308Z,4.13
2018-09-04T01:10:36.091Z,4.20
2018-09-04T01:13:05.454Z,4.37
2018-09-04T01:15:35.098Z,4.97
2018-09-04T01:18:04.911Z,4.50
2018-09-04T01:20:34.337Z,4.10
2018-09-04T01:23:04.678Z,4.70
2018-09-04T01:25:34.239Z,4.70
2018-09-04T01:28:03.650Z,4.33
2018-09-04T01:30:33.315Z,4.23
2018-09-04T01:33:02.840Z,5.23
2018-09-04T01:35:32.946Z,5.00
2018-09-04T01:38:02.699Z,4.23
2018-09-04T01:40:32.371Z,4.33
2018-09-04T01:43:01.507Z,4.10
2018-09-04T01:45:30.950Z,3.90
2018-09-04T01:48:00.699Z,3.13
2018-09-04T01:50:30.309Z,3.77
2018-09-04T01:52:59.892Z,4.40
2018-09-04T01:55:29.481Z,4.35
2018-09-04T01:57:59.611Z,4.30
2018-09-04T02:00:29.341Z,3.80
2018-09-04T02:02:59.690Z,4.17
2018-09-04T02:05:29.161Z,3.83
2018-09-04T02:07:58.632Z,3.90
2018-09-04T02:10:28.686Z,3.87
2018-09-04T02:12:59.160Z,3.97
2018-09-04T02:15:29.370Z,4.30
2018-09-04T02:17:58.893Z,3.80
2018-09-04T02:20:28.398Z,4.20
2018-09-04T02:22:57.827Z,3.93
2018-09-04T02:25:27.281Z,4.07
2018-09-04T02:27:56.870Z,3.70
2018-09-04T02:30:26.463Z,3.53
2018-09-04T02:32:56.201Z,3.80
2018-09-04T02:35:25.543Z,3.40
2018-09-04T02:37:55.100Z,3.53
2018-09-04T02:43:15.478Z,3.80
2018-09-04T02:45:44.797Z,4.17
2018-09-04T02:51:06.582Z,4.73
2018-09-04T02:53:36.831Z,4.63
2018-09-04T02:56:06.201Z,5.07
2018-09-04T02:58:35.681Z,5.13
2018-09-04T03:01:05.697Z,4.50
2018-09-04T03:03:35.914Z,4.40
2018-09-04T03:06:06.552Z,4.50
2018-09-04T03:08:36.039Z,4.30
2018-09-04T03:11:05.843Z,3.93
2018-09-04T03:13:35.757Z,3.90
2018-09-04T03:16:05.531Z,4.23
2018-09-04T03:18:35.920Z,4.47
2018-09-04T03:21:05.491Z,4.20
2018-09-04T03:23:34.924Z,4.33
2018-09-04T03:26:04.526Z,4.20
2018-09-04T03:28:34.384Z,4.23
2018-09-04T03:31:04.091Z,3.97
2018-09-04T03:33:35.072Z,4.23
2018-09-04T03:36:05.330Z,3.97
2018-09-04T03:38:34.616Z,4.20
2018-09-04T03:41:04.597Z,4.57
2018-09-04T03:43:34.519Z,4.93
2018-09-04T03:46:04.113Z,5.00
2018-09-04T03:48:33.969Z,5.10
2018-09-04T03:51:03.360Z,4.67
2018-09-04T03:53:33.189Z,4.50
2018-09-04T03:56:02.573Z,4.67
2018-09-04T03:58:31.929Z,4.57
2018-09-04T04:01:01.339Z,4.43
2018-09-04T04:03:30.829Z,4.03
2018-09-04T04:06:00.061Z,3.97
2018-09-04T04:08:29.712Z,4.10
2018-09-04T04:10:59.451Z,4.30
2018-09-04T04:13:28.991Z,3.97
2018-09-04T04:15:58.132Z,3.97
2018-09-04T04:18:27.968Z,3.63
2018-09-04T04:21:00.773Z,3.60
2018-09-04T04:23:31.020Z,4.00
2018-09-04T04:26:02.849Z,4.40
2018-09-04T04:28:32.347Z,4.07
2018-09-04T04:31:01.988Z,4.47
2018-09-04T04:33:31.574Z,4.50
2018-09-04T04:36:01.300Z,4.07
2018-09-04T04:38:30.614Z,3.90
2018-09-04T04:40:59.903Z,4.10
2018-09-04T04:43:29.328Z,4.40
2018-09-04T04:45:58.690Z,4.30
2018-09-04T04:48:28.258Z,4.00
2018-09-04T04:50:57.984Z,4.40
2018-09-04T04:53:27.331Z,4.03
2018-09-04T04:55:57.307Z,4.73
2018-09-04T04:58:26.924Z,4.80
2018-09-04T05:00:56.802Z,4.00
2018-09-04T05:03:26.103Z,4.80
2018-09-04T05:05:55.877Z,4.90
2018-09-04T05:08:25.480Z,4.47
2018-09-04T05:10:55.108Z,4.90
2018-09-04T05:13:24.643Z,3.97
2018-09-04T05:15:54.157Z,4.70
2018-09-04T05:18:23.588Z,4.57
2018-09-04T05:20:53.347Z,3.77
2018-09-04T05:23:23.110Z,4.47
2018-09-04T05:25:52.683Z,4.63
2018-09-04T05:28:22.219Z,4.40
2018-09-04T05:30:51.740Z,4.77
2018-09-04T05:33:54.090Z,4.37
2018-09-04T05:36:23.546Z,4.90
2018-09-04T05:38:52.929Z,4.90
2018-09-04T05:41:22.417Z,4.57
2018-09-04T05:43:56.172Z,5.23
2018-09-04T05:46:36.449Z,4.67
2018-09-04T05:49:06.411Z,4.80
2018-09-04T05:51:35.876Z,4.60
2018-09-04T05:54:05.649Z,5.23
2018-09-04T05:56:35.198Z,5.33
2018-09-04T05:59:04.427Z,5.17
2018-09-04T06:01:34.019Z,5.37
2018-09-04T06:04:03.680Z,5.27
2018-09-04T06:06:33.887Z,5.60
2018-09-04T06:09:03.776Z,5.40
2018-09-04T06:11:33.937Z,4.70
2018-09-04T06:14:03.813Z,5.30
2018-09-04T06:16:33.080Z,5.40
2018-09-04T06:19:02.578Z,6.17
2018-09-04T06:21:32.107Z,5.80
2018-09-04T06:24:01.665Z,5.90
2018-09-04T06:26:31.057Z,5.63
2018-09-04T06:29:00.612Z,6.23
2018-09-04T06:31:30.493Z,5.67
2018-09-04T06:34:00.167Z,5.80
2018-09-04T06:36:29.675Z,5.87
2018-09-04T06:38:59.594Z,4.60
2018-09-04T06:41:29.372Z,4.90
2018-09-04T06:43:58.952Z,4.67
2018-09-04T06:46:28.413Z,5.57
2018-09-04T06:48:58.278Z,4.90
2018-09-04T06:51:27.806Z,4.90
2018-09-04T06:53:57.400Z,5.20
2018-09-04T06:56:26.811Z,5.83
2018-09-04T06:58:56.139Z,6.40
2018-09-04T07:01:25.731Z,6.17
2018-09-04T07:03:55.661Z,6.33
2018-09-04T07:06:25.302Z,6.07
2018-09-04T07:08:55.732Z,6.23
2018-09-04T07:11:25.400Z,6.80
2018-09-04T07:13:55.037Z,6.83
2018-09-04T07:16:24.473Z,6.97
2018-09-04T07:18:54.078Z,6.77
2018-09-04T07:21:23.729Z,7.20
2018-09-04T07:23:53.231Z,6.30
2018-09-04T07:26:22.938Z,7.07
2018-09-04T07:28:52.231Z,6.90
2018-09-04T07:31:22.148Z,6.60
2018-09-04T07:33:51.720Z,6.77
2018-09-04T07:36:21.180Z,5.80
2018-09-04T07:38:50.761Z,5.30
2018-09-04T07:41:20.093Z,5.30
2018-09-04T07:43:49.572Z,5.10
2018-09-04T07:46:19.242Z,5.30
2018-09-04T07:48:49.026Z,4.67
2018-09-04T07:51:18.655Z,5.20
2018-09-04T07:53:48.152Z,4.53
2018-09-04T07:56:17.958Z,4.43
2018-09-04T07:58:47.387Z,4.17
2018-09-04T08:01:17.585Z,4.60
2018-09-04T08:03:47.203Z,4.40
2018-09-04T08:06:16.701Z,4.70
2018-09-04T08:08:46.181Z,4.50
2018-09-04T08:11:15.702Z,4.07
2018-09-04T08:13:45.516Z,4.27
2018-09-04T08:16:15.200Z,3.90
2018-09-04T08:18:44.839Z,3.90
2018-09-04T08:21:14.138Z,4.37
2018-09-04T08:23:43.669Z,4.90
2018-09-04T08:26:13.513Z,4.33
2018-09-04T08:28:43.471Z,4.30
2018-09-04T08:31:12.815Z,4.27
2018-09-04T08:33:42.324Z,3.60
2018-09-04T08:36:11.862Z,4.17
2018-09-04T08:38:46.613Z,4.03
2018-09-04T08:41:16.281Z,4.13
2018-09-04T08:43:46.093Z,4.00
2018-09-04T08:46:15.624Z,3.80
2018-09-04T08:48:45.407Z,3.30
2018-09-04T08:51:15.733Z,3.03
2018-09-04T08:53:45.369Z,2.77
2018-09-04T08:56:14.528Z,3.60
2018-09-04T08:58:43.866Z,3.23
2018-09-04T09:01:13.717Z,3.40
2018-09-04T09:03:43.573Z,3.70
2018-09-04T09:06:13.420Z,3.50
2018-09-04T09:08:42.785Z,3.00
2018-09-04T09:11:13.252Z,2.97
2018-09-04T09:13:42.921Z,3.27
2018-09-04T09:16:12.333Z,3.50
2018-09-04T09:18:41.768Z,3.23
2018-09-04T09:21:11.615Z,2.93
2018-09-04T09:23:41.551Z,3.43
2018-09-04T09:26:11.232Z,2.70
2018-09-04T09:28:40.800Z,3.60
2018-09-04T09:31:10.232Z,3.17
2018-09-04T09:33:39.642Z,3.63
2018-09-04T09:36:09.351Z,2.97
2018-09-04T09:38:39.016Z,3.10
2018-09-04T09:41:08.513Z,2.77
2018-09-04T09:43:38.227Z,3.07
2018-09-04T09:46:08.085Z,3.20
2018-09-04T09:48:42.738Z,3.13
2018-09-04T09:51:13.424Z,2.80
2018-09-04T09:53:43.121Z,3.27
2018-09-04T09:56:12.918Z,3.10
2018-09-04T09:58:42.535Z,2.83
2018-09-04T10:01:17.088Z,3.10
2018-09-04T10:03:52.081Z,2.97
2018-09-04T10:06:22.311Z,2.77
2018-09-04T10:08:51.664Z,2.50
2018-09-04T10:11:21.301Z,3.10
2018-09-04T10:13:51.079Z,3.00
2018-09-04T10:16:20.664Z,2.87
2018-09-04T10:18:50.384Z,3.30
2018-09-04T10:21:19.949Z,3.27
2018-09-04T10:23:49.784Z,3.20
2018-09-04T10:26:19.479Z,3.20
2018-09-04T10:28:49.209Z,2.70
2018-09-04T10:31:18.502Z,2.97
2018-09-04T10:33:47.943Z,3.10
2018-09-04T10:36:17.564Z,2.93
2018-09-04T10:38:46.947Z,3.10
2018-09-04T10:41:17.190Z,3.00
2018-09-04T10:43:46.577Z,3.00
2018-09-04T10:46:16.289Z,3.40
2018-09-04T10:48:45.813Z,3.60
2018-09-04T10:51:15.414Z,3.50
2018-09-04T10:53:45.056Z,3.10
2018-09-04T10:56:14.423Z,3.30
2018-09-04T10:58:44.223Z,3.63
2018-09-04T11:01:13.958Z,3.60
2018-09-04T11:03:43.371Z,3.50
2018-09-04T11:06:13.082Z,3.20
2018-09-04T11:08:42.611Z,3.20
2018-09-04T11:11:12.110Z,3.10
2018-09-04T11:13:41.846Z,3.40
2018-09-04T11:16:11.326Z,3.40
2018-09-04T11:18:40.818Z,3.23
2018-09-04T11:21:10.383Z,3.27
2018-09-04T11:23:40.030Z,3.63
2018-09-04T11:26:09.499Z,3.63
2018-09-04T11:28:43.571Z,3.70
2018-09-04T11:31:13.410Z,3.43
2018-09-04T11:33:43.128Z,3.37
2018-09-04T11:36:12.629Z,3.40
2018-09-04T11:38:41.981Z,3.60
2018-09-04T11:41:12.320Z,3.47
2018-09-04T11:43:41.788Z,3.37
2018-09-04T11:46:12.263Z,3.50
2018-09-04T11:48:41.978Z,3.50
2018-09-04T11:51:12.647Z,3.40
2018-09-04T11:53:42.371Z,3.60
2018-09-04T11:56:11.759Z,3.37
2018-09-04T11:58:41.551Z,3.53
2018-09-04T12:01:13.538Z,3.30
2018-09-04T12:03:43.148Z,3.27
2018-09-04T12:06:12.713Z,3.60
2018-09-04T12:08:42.185Z,3.20
2018-09-04T12:11:11.780Z,3.43
2018-09-04T12:13:41.561Z,3.50
2018-09-04T12:16:11.392Z,3.70
2018-09-04T12:18:40.795Z,3.57
2018-09-04T12:21:12.192Z,3.60
2018-09-04T12:23:41.959Z,3.70
2018-09-04T12:26:12.338Z,3.93
2018-09-04T12:28:42.542Z,3.10
2018-09-04T12:31:13.080Z,4.03
2018-09-04T12:33:49.252Z,3.77
2018-09-04T12:36:18.926Z,3.50
2018-09-04T12:38:48.320Z,3.67
2018-09-04T12:41:18.924Z,3.77
2018-09-04T12:43:48.248Z,3.60
2018-09-04T12:46:18.904Z,3.63
2018-09-04T12:48:50.905Z,3.73
2018-09-04T12:51:20.779Z,4.43
2018-09-04T12:53:50.401Z,4.30
2018-09-04T12:56:20.630Z,4.10
2018-09-04T12:58:49.989Z,4.00
2018-09-04T13:01:19.260Z,3.30
2018-09-04T13:03:48.758Z,4.30
2018-09-04T13:06:18.379Z,4.13
2018-09-04T13:08:48.098Z,3.90
2018-09-04T13:11:17.666Z,4.03
2018-09-04T13:13:46.925Z,3.97
2018-09-04T13:16:16.443Z,3.97
2018-09-04T13:18:46.799Z,4.20
2018-09-04T13:21:20.957Z,3.90
2018-09-04T13:23:50.632Z,3.87
2018-09-04T13:26:20.195Z,3.70
2018-09-04T13:28:49.759Z,3.70
2018-09-04T13:31:19.440Z,3.23
2018-09-04T13:33:49.909Z,3.37
2018-09-04T13:36:19.478Z,3.60
2018-09-04T13:38:49.301Z,3.47
2018-09-04T13:41:18.921Z,3.73
2018-09-04T13:43:48.580Z,3.90
2018-09-04T13:46:18.273Z,3.53
2018-09-04T13:48:48.055Z,4.00
2018-09-04T13:51:17.733Z,4.20
2018-09-04T13:53:47.192Z,3.70
2018-09-04T13:56:16.990Z,4.00
2018-09-04T13:58:46.272Z,4.00
2018-09-04T14:01:15.949Z,4.00
2018-09-04T14:03:46.444Z,4.00
2018-09-04T14:06:15.773Z,4.50
2018-09-04T14:08:45.255Z,4.40
2018-09-04T14:11:15.200Z,4.80
2018-09-04T14:13:44.893Z,5.20
2018-09-04T14:16:16.836Z,3.93
2018-09-04T14:18:46.526Z,4.17
2018-09-04T14:21:16.174Z,4.43
2018-09-04T14:23:45.854Z,4.10
2018-09-04T14:26:15.391Z,4.67
2018-09-04T14:28:44.969Z,4.33
2018-09-04T14:31:15.468Z,4.27
2018-09-04T14:33:45.238Z,3.83
2018-09-04T14:36:14.652Z,4.10
2018-09-04T14:38:44.438Z,4.07
2018-09-04T14:41:13.811Z,4.10
2018-09-04T14:43:43.350Z,4.47
2018-09-04T14:46:13.413Z,4.27
2018-09-04T14:48:43.392Z,4.20
2018-09-04T14:51:13.139Z,4.30
2018-09-04T14:53:42.965Z,4.40
2018-09-04T14:56:12.713Z,4.20
2018-09-04T14:58:42.032Z,4.27
2018-09-04T15:01:11.444Z,4.67
2018-09-04T15:03:41.589Z,4.77
2018-09-04T15:06:11.182Z,4.13
2018-09-04T15:08:40.584Z,4.30
2018-09-04T15:11:10.494Z,4.10
2018-09-04T15:13:40.568Z,4.10
2018-09-04T15:16:10.342Z,4.43
2018-09-04T15:18:39.883Z,4.40
2018-09-04T15:21:09.505Z,4.23
2018-09-04T15:23:38.978Z,4.10
2018-09-04T15:26:08.348Z,4.60
2018-09-04T15:28:37.891Z,4.80
2018-09-04T15:31:07.813Z,4.43
2018-09-04T15:33:37.255Z,4.57
2018-09-04T15:36:07.024Z,4.60
2018-09-04T15:38:37.391Z,4.43
2018-09-04T15:41:06.532Z,4.03
2018-09-04T15:43:36.302Z,4.40
2018-09-04T15:46:06.043Z,4.23
2018-09-04T15:48:35.492Z,4.07
2018-09-04T15:51:05.664Z,4.53
2018-09-04T15:53:35.298Z,4.70
2018-09-04T15:56:04.477Z,4.37
2018-09-04T15:58:34.160Z,4.30
2018-09-04T16:01:03.785Z,5.13
2018-09-04T16:03:34.731Z,5.17
2018-09-04T16:06:04.340Z,4.33
2018-09-04T16:08:34.184Z,4.77
2018-09-04T16:11:03.971Z,4.50
2018-09-04T16:13:33.663Z,4.47
2018-09-04T16:16:03.481Z,4.50
2018-09-04T16:18:32.961Z,4.27
2018-09-04T16:21:02.717Z,4.23
2018-09-04T16:23:32.317Z,4.60
2018-09-04T16:26:01.871Z,4.20
2018-09-04T16:28:31.657Z,4.60
2018-09-04T16:31:01.488Z,4.40
2018-09-04T16:33:31.359Z,4.50
2018-09-04T16:36:01.079Z,4.80
2018-09-04T16:38:30.710Z,4.40
2018-09-04T16:41:00.371Z,4.93
2018-09-04T16:43:29.950Z,4.60
2018-09-04T16:45:59.812Z,4.60
2018-09-04T16:48:31.764Z,4.87
2018-09-04T16:51:02.474Z,4.73
2018-09-04T16:53:33.127Z,4.23
2018-09-04T16:56:03.227Z,4.30
2018-09-04T16:58:33.653Z,4.40
2018-09-04T17:01:03.201Z,4.60
2018-09-04T17:03:32.986Z,3.67
2018-09-04T17:06:02.499Z,4.27
2018-09-04T17:08:32.000Z,4.37
2018-09-04T17:11:01.228Z,4.50
2018-09-04T17:13:30.562Z,4.57
2018-09-04T17:15:59.919Z,4.13
2018-09-04T17:18:29.454Z,4.53
2018-09-04T17:20:59.098Z,4.13
2018-09-04T17:23:28.712Z,4.67
2018-09-04T17:25:58.198Z,4.03
2018-09-04T17:28:27.773Z,3.93
2018-09-04T17:30:57.223Z,4.13
2018-09-04T17:33:26.943Z,3.97
2018-09-04T17:35:56.551Z,4.23
2018-09-04T17:38:26.227Z,4.53
2018-09-04T17:40:55.753Z,3.97
2018-09-04T17:43:25.229Z,4.20
2018-09-04T17:45:55.136Z,4.77
2018-09-04T17:48:25.001Z,4.33
2018-09-04T17:50:54.200Z,4.27
2018-09-04T17:53:23.734Z,4.33
2018-09-04T17:55:53.661Z,4.50
2018-09-04T17:58:23.106Z,5.20
2018-09-04T18:00:52.755Z,4.77
2018-09-04T18:03:22.504Z,4.43
2018-09-04T18:05:52.118Z,5.03
2018-09-04T18:08:21.757Z,5.07
2018-09-04T18:10:51.139Z,4.87
2018-09-04T18:13:21.092Z,5.07
2018-09-04T18:15:50.467Z,4.80
2018-09-04T18:18:20.009Z,5.03
2018-09-04T18:20:49.722Z,4.33
2018-09-04T18:23:19.416Z,4.60
2018-09-04T18:25:49.022Z,4.80
2018-09-04T18:28:18.790Z,4.57
2018-09-04T18:30:48.530Z,4.60
2018-09-04T18:33:17.783Z,5.13
2018-09-04T18:35:47.371Z,5.33
2018-09-04T18:38:17.220Z,5.13
2018-09-04T18:40:46.928Z,5.50
2018-09-04T18:43:16.653Z,5.33
2018-09-04T18:45:56.243Z,5.27
2018-09-04T18:48:26.400Z,5.10
2018-09-04T18:50:55.749Z,4.80
2018-09-04T18:53:25.260Z,4.97
2018-09-04T18:55:55.003Z,4.50
2018-09-04T18:58:24.462Z,4.50
2018-09-04T19:00:53.713Z,4.70
2018-09-04T19:03:23.350Z,5.03
2018-09-04T19:05:52.810Z,5.03
2018-09-04T19:08:22.391Z,5.33
2018-09-04T19:10:51.957Z,5.77
2018-09-04T19:13:21.767Z,5.50
2018-09-04T19:15:51.638Z,5.03
2018-09-04T19:18:21.114Z,4.70
2018-09-04T19:20:51.249Z,4.70
2018-09-04T19:23:20.791Z,4.43
2018-09-04T19:25:50.330Z,4.90
2018-09-04T19:28:20.142Z,4.60
2018-09-04T19:30:49.852Z,4.80
2018-09-04T19:33:19.564Z,5.10
2018-09-04T19:35:49.501Z,5.00
2018-09-04T19:38:19.004Z,5.70
2018-09-04T19:40:48.544Z,5.13
2018-09-04T19:43:17.906Z,5.50
2018-09-04T19:45:47.083Z,5.07
2018-09-04T19:48:16.652Z,5.03
2018-09-04T19:50:46.674Z,5.00
2018-09-04T19:53:16.058Z,4.90
2018-09-04T19:55:45.757Z,4.67
2018-09-04T19:58:21.802Z,5.50
2018-09-04T20:00:51.285Z,5.47
2018-09-04T20:03:21.043Z,5.87
2018-09-04T20:05:50.583Z,5.67
2018-09-04T20:08:20.490Z,5.77
2018-09-04T20:10:50.091Z,5.70
2018-09-04T20:13:19.854Z,5.80
2018-09-04T20:15:49.274Z,4.97
2018-09-04T20:18:18.808Z,5.93
2018-09-04T20:20:48.429Z,5.57
2018-09-04T20:23:17.842Z,5.87
2018-09-04T20:25:47.113Z,5.43
2018-09-04T20:28:16.658Z,5.57
2018-09-04T20:30:46.362Z,6.20
2018-09-04T20:33:15.819Z,8.00
2018-09-04T20:35:45.497Z,6.10
2018-09-04T20:38:15.034Z,5.20
2018-09-04T20:40:44.287Z,5.47
2018-09-04T20:43:14.087Z,5.23
2018-09-04T20:45:44.618Z,5.57
2018-09-04T20:48:14.543Z,5.80
2018-09-04T20:50:44.146Z,5.40
2018-09-04T20:53:13.781Z,5.70
2018-09-04T20:55:43.300Z,5.83
2018-09-04T20:58:23.531Z,5.37
2018-09-04T21:01:03.561Z,5.87
2018-09-04T21:03:43.656Z,5.93
2018-09-04T21:06:23.734Z,6.03
2018-09-04T21:09:01.511Z,5.83
2018-09-04T21:11:31.677Z,6.10
2018-09-04T21:14:02.312Z,5.77
2018-09-04T21:16:31.731Z,5.50
2018-09-04T21:19:01.411Z,6.40
2018-09-04T21:21:31.085Z,6.17
2018-09-04T21:24:00.919Z,5.90
2018-09-04T21:26:30.839Z,6.30
2018-09-04T21:29:00.639Z,6.07
2018-09-04T21:31:30.424Z,5.83
2018-09-04T21:34:00.343Z,5.53
2018-09-04T21:36:29.858Z,6.50
2018-09-04T21:38:59.397Z,5.80
2018-09-04T21:41:28.951Z,5.60
2018-09-04T21:43:58.487Z,5.83
2018-09-04T21:46:27.985Z,6.40
2018-09-04T21:48:57.626Z,6.07
2018-09-04T21:51:27.461Z,6.93
2018-09-04T21:53:56.787Z,6.10
2018-09-04T21:56:26.520Z,5.27
2018-09-04T21:58:56.329Z,6.17
2018-09-04T22:01:25.902Z,6.43
2018-09-04T22:03:55.507Z,6.73
2018-09-04T22:06:24.918Z,6.90
2018-09-04T22:08:54.604Z,6.50
2018-09-04T22:11:24.151Z,7.40
2018-09-04T22:13:53.618Z,6.70
2018-09-04T22:16:22.761Z,6.80
2018-09-04T22:18:52.445Z,6.93
2018-09-04T22:21:21.576Z,6.73
2018-09-04T22:23:51.626Z,7.20
2018-09-04T22:26:21.358Z,6.53
2018-09-04T22:28:51.038Z,6.67
2018-09-04T22:31:20.476Z,7.53
2018-09-04T22:33:49.857Z,6.03
2018-09-04T22:36:19.283Z,7.07
2018-09-04T22:38:48.569Z,7.10
2018-09-04T22:41:18.094Z,6.97
2018-09-04T22:43:48.163Z,6.47
2018-09-04T22:46:17.499Z,7.73
2018-09-04T22:48:47.118Z,7.00
2018-09-04T22:51:21.950Z,6.97
2018-09-04T22:53:51.821Z,7.23
2018-09-04T22:56:21.117Z,7.43
2018-09-04T22:58:50.817Z,7.80
2018-09-04T23:01:20.354Z,7.07
2018-09-04T23:03:49.650Z,7.20
2018-09-04T23:06:19.112Z,6.67
2018-09-04T23:08:48.728Z,6.63
2018-09-04T23:11:18.492Z,5.77
2018-09-04T23:13:48.162Z,7.07
2018-09-04T23:16:17.702Z,7.70
2018-09-04T23:18:46.975Z,6.27
2018-09-04T23:21:16.367Z,7.33
2018-09-04T23:23:46.176Z,7.07
2018-09-04T23:26:15.728Z,7.27
2018-09-04T23:28:45.437Z,6.87
2018-09-04T23:31:14.813Z,6.97
2018-09-04T23:33:44.502Z,6.87
2018-09-04T23:36:14.384Z,7.20
2018-09-04T23:38:44.241Z,7.80
2018-09-04T23:41:13.922Z,7.70
2018-09-04T23:43:43.509Z,8.57
2018-09-04T23:46:13.051Z,7.47
2018-09-04T23:48:42.440Z,7.43
2018-09-04T23:51:11.988Z,7.70
2018-09-04T23:53:41.257Z,7.47
2018-09-04T23:56:10.782Z,7.40
2018-09-04T23:58:40.438Z,7.50
